sensor_id;sensor_type;location;lat;lon;timestamp;P1;durP1;ratioP1;P2;durP2;ratioP2
3299;SDS011;1662;49.310;8.134;2023-06-10T00:02:04;14.27;;;13.17;;
3299;SDS011;1662;49.310;8.134;2023-06-10T00:04:30;15.60;;;14.47;;
3299;SDS011;1662;49.310;8.134;2023-06-10T00:06:56;14.77;;;13.73;;
3299;SDS011;1662;49.310;8.134;2023-06-10T00:09:22;14.60;;;13.60;;
3299;SDS011;1662;49.310;8.134;2023-06-10T00:11:47;14.40;;;13.40;;
3299;SDS011;1662;49.310;8.134;2023-06-10T00:14:16;13.90;;;12.90;;
3299;SDS011;1662;49.310;8.134;2023-06-10T00:16:41;14.47;;;13.57;;
3299;SDS011;1662;49.310;8.134;2023-06-10T00:19:10;13.50;;;12.70;;
3299;SDS011;1662;49.310;8.134;2023-06-10T00:21:38;14.53;;;13.40;;
3299;SDS011;1662;49.310;8.134;2023-06-10T00:26:39;14.10;;;12.90;;
3299;SDS011;1662;49.310;8.134;2023-06-10T00:29:05;13.70;;;12.80;;
3299;SDS011;1662;49.310;8.134;2023-06-10T00:31:32;13.50;;;12.60;;
3299;SDS011;1662;49.310;8.134;2023-06-10T00:33:58;14.40;;;13.40;;
3299;SDS011;1662;49.310;8.134;2023-06-10T00:36:24;13.73;;;12.93;;
3299;SDS011;1662;49.310;8.134;2023-06-10T00:38:50;12.67;;;11.97;;
3299;SDS011;1662;49.310;8.134;2023-06-10T00:41:15;13.93;;;12.87;;
3299;SDS011;1662;49.310;8.134;2023-06-10T00:43:44;13.10;;;12.40;;
3299;SDS011;1662;49.310;8.134;2023-06-10T00:46:09;14.40;;;13.40;;
3299;SDS011;1662;49.310;8.134;2023-06-10T00:48:37;13.87;;;13.07;;
3299;SDS011;1662;49.310;8.134;2023-06-10T00:51:04;12.83;;;12.13;;
3299;SDS011;1662;49.310;8.134;2023-06-10T00:53:31;13.80;;;12.90;;
3299;SDS011;1662;49.310;8.134;2023-06-10T00:55:57;13.40;;;12.50;;
3299;SDS011;1662;49.310;8.134;2023-06-10T00:58:24;13.23;;;12.33;;
3299;SDS011;1662;49.310;8.134;2023-06-10T01:00:50;14.27;;;13.27;;
3299;SDS011;1662;49.310;8.134;2023-06-10T01:03:16;14.27;;;13.27;;
3299;SDS011;1662;49.310;8.134;2023-06-10T01:05:43;13.53;;;12.43;;
3299;SDS011;1662;49.310;8.134;2023-06-10T01:11:06;13.47;;;12.43;;
3299;SDS011;1662;49.310;8.134;2023-06-10T01:13:38;11.70;;;11.10;;
3299;SDS011;1662;49.310;8.134;2023-06-10T01:16:06;13.80;;;12.87;;
3299;SDS011;1662;49.310;8.134;2023-06-10T01:18:32;12.33;;;11.73;;
3299;SDS011;1662;49.310;8.134;2023-06-10T01:20:58;13.07;;;11.97;;
3299;SDS011;1662;49.310;8.134;2023-06-10T01:23:24;13.20;;;12.03;;
3299;SDS011;1662;49.310;8.134;2023-06-10T01:28:40;12.63;;;11.90;;
3299;SDS011;1662;49.310;8.134;2023-06-10T01:31:18;12.20;;;11.30;;
3299;SDS011;1662;49.310;8.134;2023-06-10T01:33:58;13.20;;;12.40;;
3299;SDS011;1662;49.310;8.134;2023-06-10T01:36:25;12.83;;;11.80;;
3299;SDS011;1662;49.310;8.134;2023-06-10T01:38:52;12.70;;;12.00;;
3299;SDS011;1662;49.310;8.134;2023-06-10T01:41:19;12.43;;;11.63;;
3299;SDS011;1662;49.310;8.134;2023-06-10T01:43:46;12.23;;;11.53;;
3299;SDS011;1662;49.310;8.134;2023-06-10T01:46:12;12.97;;;12.07;;
3299;SDS011;1662;49.310;8.134;2023-06-10T01:48:39;12.50;;;11.70;;
3299;SDS011;1662;49.310;8.134;2023-06-10T01:51:04;11.87;;;11.07;;
3299;SDS011;1662;49.310;8.134;2023-06-10T01:53:30;13.07;;;12.00;;
3299;SDS011;1662;49.310;8.134;2023-06-10T01:55:56;12.63;;;11.93;;
3299;SDS011;1662;49.310;8.134;2023-06-10T01:58:21;11.90;;;11.10;;
3299;SDS011;1662;49.310;8.134;2023-06-10T02:00:47;12.70;;;11.60;;
3299;SDS011;1662;49.310;8.134;2023-06-10T02:03:12;12.50;;;11.43;;
3299;SDS011;1662;49.310;8.134;2023-06-10T02:05:38;13.20;;;12.40;;
3299;SDS011;1662;49.310;8.134;2023-06-10T02:08:04;12.67;;;11.77;;
3299;SDS011;1662;49.310;8.134;2023-06-10T02:10:30;12.50;;;11.70;;
3299;SDS011;1662;49.310;8.134;2023-06-10T02:12:56;11.90;;;11.20;;
3299;SDS011;1662;49.310;8.134;2023-06-10T02:15:26;11.70;;;10.90;;
3299;SDS011;1662;49.310;8.134;2023-06-10T02:17:52;12.47;;;11.60;;
3299;SDS011;1662;49.310;8.134;2023-06-10T02:20:19;12.60;;;11.90;;
3299;SDS011;1662;49.310;8.134;2023-06-10T02:22:46;11.90;;;11.20;;
3299;SDS011;1662;49.310;8.134;2023-06-10T02:25:12;12.27;;;11.47;;
3299;SDS011;1662;49.310;8.134;2023-06-10T02:27:38;11.47;;;10.77;;
3299;SDS011;1662;49.310;8.134;2023-06-10T02:30:06;11.60;;;10.90;;
3299;SDS011;1662;49.310;8.134;2023-06-10T02:32:35;12.00;;;11.00;;
3299;SDS011;1662;49.310;8.134;2023-06-10T02:35:01;12.10;;;11.20;;
3299;SDS011;1662;49.310;8.134;2023-06-10T02:37:27;12.10;;;11.40;;
3299;SDS011;1662;49.310;8.134;2023-06-10T02:39:52;12.97;;;12.17;;
3299;SDS011;1662;49.310;8.134;2023-06-10T02:42:18;12.40;;;11.60;;
3299;SDS011;1662;49.310;8.134;2023-06-10T02:44:46;13.77;;;12.77;;
3299;SDS011;1662;49.310;8.134;2023-06-10T02:47:11;12.00;;;11.30;;
3299;SDS011;1662;49.310;8.134;2023-06-10T02:49:37;13.17;;;12.37;;
3299;SDS011;1662;49.310;8.134;2023-06-10T02:52:02;12.00;;;11.13;;
3299;SDS011;1662;49.310;8.134;2023-06-10T02:54:28;12.57;;;11.77;;
3299;SDS011;1662;49.310;8.134;2023-06-10T02:56:54;13.03;;;12.00;;
3299;SDS011;1662;49.310;8.134;2023-06-10T02:59:20;12.50;;;11.70;;
3299;SDS011;1662;49.310;8.134;2023-06-10T03:01:46;12.23;;;11.53;;
3299;SDS011;1662;49.310;8.134;2023-06-10T03:04:12;12.40;;;11.60;;
3299;SDS011;1662;49.310;8.134;2023-06-10T03:06:39;11.80;;;11.20;;
3299;SDS011;1662;49.310;8.134;2023-06-10T03:09:10;13.10;;;12.20;;
3299;SDS011;1662;49.310;8.134;2023-06-10T03:11:38;13.10;;;12.10;;
3299;SDS011;1662;49.310;8.134;2023-06-10T03:14:04;13.07;;;11.90;;
3299;SDS011;1662;49.310;8.134;2023-06-10T03:16:29;12.37;;;11.57;;
3299;SDS011;1662;49.310;8.134;2023-06-10T03:18:56;12.90;;;11.90;;
3299;SDS011;1662;49.310;8.134;2023-06-10T03:21:21;12.90;;;12.10;;
3299;SDS011;1662;49.310;8.134;2023-06-10T03:23:47;11.83;;;11.03;;
3299;SDS011;1662;49.310;8.134;2023-06-10T03:26:13;12.57;;;11.77;;
3299;SDS011;1662;49.310;8.134;2023-06-10T03:28:40;12.67;;;11.87;;
3299;SDS011;1662;49.310;8.134;2023-06-10T03:31:06;12.53;;;11.63;;
3299;SDS011;1662;49.310;8.134;2023-06-10T03:33:31;12.37;;;11.50;;
3299;SDS011;1662;49.310;8.134;2023-06-10T03:35:57;11.93;;;11.23;;
3299;SDS011;1662;49.310;8.134;2023-06-10T03:38:23;12.53;;;11.47;;
3299;SDS011;1662;49.310;8.134;2023-06-10T03:40:49;12.70;;;11.90;;
3299;SDS011;1662;49.310;8.134;2023-06-10T03:43:15;13.13;;;12.20;;
3299;SDS011;1662;49.310;8.134;2023-06-10T03:45:40;13.83;;;12.83;;
3299;SDS011;1662;49.310;8.134;2023-06-10T03:48:09;11.90;;;11.10;;
3299;SDS011;1662;49.310;8.134;2023-06-10T03:50:36;12.93;;;12.13;;
3299;SDS011;1662;49.310;8.134;2023-06-10T03:53:01;13.77;;;12.77;;
3299;SDS011;1662;49.310;8.134;2023-06-10T03:55:30;13.40;;;12.50;;
3299;SDS011;1662;49.310;8.134;2023-06-10T03:57:56;12.70;;;11.80;;
3299;SDS011;1662;49.310;8.134;2023-06-10T04:00:21;12.50;;;11.37;;
3299;SDS011;1662;49.310;8.134;2023-06-10T04:02:47;13.13;;;12.27;;
3299;SDS011;1662;49.310;8.134;2023-06-10T04:05:20;12.10;;;11.30;;
3299;SDS011;1662;49.310;8.134;2023-06-10T04:07:46;13.27;;;12.30;;
3299;SDS011;1662;49.310;8.134;2023-06-10T04:10:13;13.43;;;12.17;;
3299;SDS011;1662;49.310;8.134;2023-06-10T04:12:39;12.57;;;11.70;;
3299;SDS011;1662;49.310;8.134;2023-06-10T04:15:05;12.73;;;11.87;;
3299;SDS011;1662;49.310;8.134;2023-06-10T04:17:31;12.47;;;11.57;;
3299;SDS011;1662;49.310;8.134;2023-06-10T04:19:59;11.87;;;11.07;;
3299;SDS011;1662;49.310;8.134;2023-06-10T04:22:25;12.63;;;11.83;;
3299;SDS011;1662;49.310;8.134;2023-06-10T04:24:51;12.00;;;11.30;;
3299;SDS011;1662;49.310;8.134;2023-06-10T04:27:17;11.57;;;10.77;;
3299;SDS011;1662;49.310;8.134;2023-06-10T04:29:43;14.33;;;13.23;;
3299;SDS011;1662;49.310;8.134;2023-06-10T04:32:09;11.13;;;10.53;;
3299;SDS011;1662;49.310;8.134;2023-06-10T04:34:34;11.93;;;11.23;;
3299;SDS011;1662;49.310;8.134;2023-06-10T04:37:00;12.60;;;11.80;;
3299;SDS011;1662;49.310;8.134;2023-06-10T04:39:26;12.37;;;11.47;;
3299;SDS011;1662;49.310;8.134;2023-06-10T04:41:52;12.07;;;11.27;;
3299;SDS011;1662;49.310;8.134;2023-06-10T04:44:17;12.00;;;11.20;;
3299;SDS011;1662;49.310;8.134;2023-06-10T04:46:43;11.33;;;10.63;;
3299;SDS011;1662;49.310;8.134;2023-06-10T04:49:09;11.40;;;10.57;;
3299;SDS011;1662;49.310;8.134;2023-06-10T04:51:35;11.87;;;11.13;;
3299;SDS011;1662;49.310;8.134;2023-06-10T04:54:01;10.63;;;10.00;;
3299;SDS011;1662;49.310;8.134;2023-06-10T04:56:29;10.53;;;9.83;;
3299;SDS011;1662;49.310;8.134;2023-06-10T04:58:58;11.00;;;10.30;;
3299;SDS011;1662;49.310;8.134;2023-06-10T05:01:25;12.33;;;11.43;;
3299;SDS011;1662;49.310;8.134;2023-06-10T05:03:50;11.23;;;10.47;;
3299;SDS011;1662;49.310;8.134;2023-06-10T05:06:16;12.00;;;11.20;;
3299;SDS011;1662;49.310;8.134;2023-06-10T05:08:42;11.87;;;11.07;;
3299;SDS011;1662;49.310;8.134;2023-06-10T05:11:07;12.60;;;11.80;;
3299;SDS011;1662;49.310;8.134;2023-06-10T05:13:33;12.00;;;11.10;;
3299;SDS011;1662;49.310;8.134;2023-06-10T05:15:59;11.27;;;10.50;;
3299;SDS011;1662;49.310;8.134;2023-06-10T05:18:25;11.70;;;11.00;;
3299;SDS011;1662;49.310;8.134;2023-06-10T05:20:50;10.73;;;10.13;;
3299;SDS011;1662;49.310;8.134;2023-06-10T05:23:16;12.60;;;11.90;;
3299;SDS011;1662;49.310;8.134;2023-06-10T05:25:42;11.43;;;10.73;;
3299;SDS011;1662;49.310;8.134;2023-06-10T05:28:07;12.07;;;11.37;;
3299;SDS011;1662;49.310;8.134;2023-06-10T05:30:35;11.80;;;11.10;;
3299;SDS011;1662;49.310;8.134;2023-06-10T05:33:01;13.10;;;12.17;;
3299;SDS011;1662;49.310;8.134;2023-06-10T05:35:30;11.77;;;11.07;;
3299;SDS011;1662;49.310;8.134;2023-06-10T05:37:56;11.10;;;10.50;;
3299;SDS011;1662;49.310;8.134;2023-06-10T05:40:22;12.53;;;11.73;;
3299;SDS011;1662;49.310;8.134;2023-06-10T05:42:47;12.00;;;11.20;;
3299;SDS011;1662;49.310;8.134;2023-06-10T05:45:13;11.40;;;10.80;;
3299;SDS011;1662;49.310;8.134;2023-06-10T05:47:41;12.17;;;11.43;;
3299;SDS011;1662;49.310;8.134;2023-06-10T05:50:07;11.30;;;10.70;;
3299;SDS011;1662;49.310;8.134;2023-06-10T05:52:34;13.10;;;12.10;;
3299;SDS011;1662;49.310;8.134;2023-06-10T05:55:05;11.80;;;11.13;;
3299;SDS011;1662;49.310;8.134;2023-06-10T05:57:32;12.20;;;11.50;;
3299;SDS011;1662;49.310;8.134;2023-06-10T05:59:57;12.70;;;11.70;;
3299;SDS011;1662;49.310;8.134;2023-06-10T06:02:25;12.13;;;11.43;;
3299;SDS011;1662;49.310;8.134;2023-06-10T06:04:51;12.10;;;11.30;;
3299;SDS011;1662;49.310;8.134;2023-06-10T06:07:16;13.53;;;12.70;;
3299;SDS011;1662;49.310;8.134;2023-06-10T06:09:45;13.67;;;12.87;;
3299;SDS011;1662;49.310;8.134;2023-06-10T06:12:11;13.60;;;12.63;;
3299;SDS011;1662;49.310;8.134;2023-06-10T06:14:38;14.17;;;13.03;;
3299;SDS011;1662;49.310;8.134;2023-06-10T06:17:06;13.07;;;12.27;;
3299;SDS011;1662;49.310;8.134;2023-06-10T06:19:32;12.53;;;11.77;;
3299;SDS011;1662;49.310;8.134;2023-06-10T06:21:58;12.87;;;12.07;;
3299;SDS011;1662;49.310;8.134;2023-06-10T06:24:24;12.53;;;11.73;;
3299;SDS011;1662;49.310;8.134;2023-06-10T06:26:50;12.57;;;11.70;;
3299;SDS011;1662;49.310;8.134;2023-06-10T06:29:15;13.63;;;12.73;;
3299;SDS011;1662;49.310;8.134;2023-06-10T06:31:41;12.50;;;11.70;;
3299;SDS011;1662;49.310;8.134;2023-06-10T06:34:06;13.17;;;12.37;;
3299;SDS011;1662;49.310;8.134;2023-06-10T06:36:32;13.13;;;12.43;;
3299;SDS011;1662;49.310;8.134;2023-06-10T06:38:57;13.53;;;12.73;;
3299;SDS011;1662;49.310;8.134;2023-06-10T06:41:23;13.50;;;12.63;;
3299;SDS011;1662;49.310;8.134;2023-06-10T06:43:51;13.40;;;12.60;;
3299;SDS011;1662;49.310;8.134;2023-06-10T06:46:17;13.00;;;12.20;;
3299;SDS011;1662;49.310;8.134;2023-06-10T06:48:42;13.97;;;12.87;;
3299;SDS011;1662;49.310;8.134;2023-06-10T06:51:08;14.20;;;13.20;;
3299;SDS011;1662;49.310;8.134;2023-06-10T06:53:34;12.63;;;11.83;;
3299;SDS011;1662;49.310;8.134;2023-06-10T06:56:00;14.43;;;13.33;;
3299;SDS011;1662;49.310;8.134;2023-06-10T06:58:26;14.07;;;12.70;;
3299;SDS011;1662;49.310;8.134;2023-06-10T07:00:51;12.53;;;11.60;;
3299;SDS011;1662;49.310;8.134;2023-06-10T07:03:17;13.10;;;12.20;;
3299;SDS011;1662;49.310;8.134;2023-06-10T07:05:43;13.63;;;12.73;;
3299;SDS011;1662;49.310;8.134;2023-06-10T07:08:08;12.63;;;11.83;;
3299;SDS011;1662;49.310;8.134;2023-06-10T07:10:34;13.93;;;12.83;;
3299;SDS011;1662;49.310;8.134;2023-06-10T07:12:59;13.70;;;12.40;;
3299;SDS011;1662;49.310;8.134;2023-06-10T07:15:25;11.60;;;10.90;;
3299;SDS011;1662;49.310;8.134;2023-06-10T07:17:51;12.10;;;11.30;;
3299;SDS011;1662;49.310;8.134;2023-06-10T07:20:17;11.70;;;11.00;;
3299;SDS011;1662;49.310;8.134;2023-06-10T07:22:43;12.47;;;11.57;;
3299;SDS011;1662;49.310;8.134;2023-06-10T07:25:11;12.10;;;10.90;;
3299;SDS011;1662;49.310;8.134;2023-06-10T07:27:36;10.90;;;10.20;;
3299;SDS011;1662;49.310;8.134;2023-06-10T07:30:03;10.87;;;10.17;;
3299;SDS011;1662;49.310;8.134;2023-06-10T07:32:31;11.70;;;10.77;;
3299;SDS011;1662;49.310;8.134;2023-06-10T07:34:56;12.63;;;11.80;;
3299;SDS011;1662;49.310;8.134;2023-06-10T07:37:22;11.53;;;10.80;;
3299;SDS011;1662;49.310;8.134;2023-06-10T07:39:48;11.60;;;10.90;;
3299;SDS011;1662;49.310;8.134;2023-06-10T07:42:13;10.50;;;10.00;;
3299;SDS011;1662;49.310;8.134;2023-06-10T07:44:39;10.43;;;9.83;;
3299;SDS011;1662;49.310;8.134;2023-06-10T07:47:05;10.70;;;9.93;;
3299;SDS011;1662;49.310;8.134;2023-06-10T07:49:33;9.77;;;9.27;;
3299;SDS011;1662;49.310;8.134;2023-06-10T07:51:59;12.47;;;11.47;;
3299;SDS011;1662;49.310;8.134;2023-06-10T07:54:25;11.13;;;10.33;;
3299;SDS011;1662;49.310;8.134;2023-06-10T07:56:52;11.53;;;10.73;;
3299;SDS011;1662;49.310;8.134;2023-06-10T07:59:18;10.30;;;9.73;;
3299;SDS011;1662;49.310;8.134;2023-06-10T08:01:46;10.80;;;10.10;;
3299;SDS011;1662;49.310;8.134;2023-06-10T08:04:12;11.10;;;10.40;;
3299;SDS011;1662;49.310;8.134;2023-06-10T08:06:37;12.00;;;11.30;;
3299;SDS011;1662;49.310;8.134;2023-06-10T08:09:03;10.87;;;10.00;;
3299;SDS011;1662;49.310;8.134;2023-06-10T08:11:29;12.13;;;11.43;;
3299;SDS011;1662;49.310;8.134;2023-06-10T08:13:55;12.20;;;11.20;;
3299;SDS011;1662;49.310;8.134;2023-06-10T08:16:23;11.83;;;10.87;;
3299;SDS011;1662;49.310;8.134;2023-06-10T08:18:49;11.80;;;10.90;;
3299;SDS011;1662;49.310;8.134;2023-06-10T08:21:15;11.63;;;10.93;;
3299;SDS011;1662;49.310;8.134;2023-06-10T08:23:41;10.20;;;9.70;;
3299;SDS011;1662;49.310;8.134;2023-06-10T08:26:06;11.50;;;10.43;;
3299;SDS011;1662;49.310;8.134;2023-06-10T08:28:32;12.03;;;11.20;;
3299;SDS011;1662;49.310;8.134;2023-06-10T08:30:57;11.90;;;11.13;;
3299;SDS011;1662;49.310;8.134;2023-06-10T08:33:23;10.50;;;9.70;;
3299;SDS011;1662;49.310;8.134;2023-06-10T08:35:49;11.40;;;10.77;;
3299;SDS011;1662;49.310;8.134;2023-06-10T08:38:14;11.60;;;10.90;;
3299;SDS011;1662;49.310;8.134;2023-06-10T08:40:41;11.30;;;10.70;;
3299;SDS011;1662;49.310;8.134;2023-06-10T08:43:07;11.30;;;10.50;;
3299;SDS011;1662;49.310;8.134;2023-06-10T08:45:36;10.83;;;10.23;;
3299;SDS011;1662;49.310;8.134;2023-06-10T08:48:02;10.73;;;10.13;;
3299;SDS011;1662;49.310;8.134;2023-06-10T08:50:35;10.90;;;10.20;;
3299;SDS011;1662;49.310;8.134;2023-06-10T08:53:02;10.93;;;10.20;;
3299;SDS011;1662;49.310;8.134;2023-06-10T08:55:31;11.10;;;10.50;;
3299;SDS011;1662;49.310;8.134;2023-06-10T08:58:00;11.87;;;11.17;;
3299;SDS011;1662;49.310;8.134;2023-06-10T09:00:26;12.87;;;11.87;;
3299;SDS011;1662;49.310;8.134;2023-06-10T09:02:53;11.80;;;11.10;;
3299;SDS011;1662;49.310;8.134;2023-06-10T09:05:19;16.23;;;10.40;;
3299;SDS011;1662;49.310;8.134;2023-06-10T09:07:45;11.53;;;10.77;;
3299;SDS011;1662;49.310;8.134;2023-06-10T09:10:12;11.43;;;10.83;;
3299;SDS011;1662;49.310;8.134;2023-06-10T09:12:38;10.90;;;10.30;;
3299;SDS011;1662;49.310;8.134;2023-06-10T09:15:04;10.93;;;10.43;;
3299;SDS011;1662;49.310;8.134;2023-06-10T09:17:31;12.07;;;11.27;;
3299;SDS011;1662;49.310;8.134;2023-06-10T09:20:01;11.33;;;10.63;;
3299;SDS011;1662;49.310;8.134;2023-06-10T09:22:28;12.57;;;11.67;;
3299;SDS011;1662;49.310;8.134;2023-06-10T09:27:30;13.27;;;12.57;;
3299;SDS011;1662;49.310;8.134;2023-06-10T09:29:58;11.90;;;11.30;;
3299;SDS011;1662;49.310;8.134;2023-06-10T09:32:25;11.37;;;10.67;;
3299;SDS011;1662;49.310;8.134;2023-06-10T09:34:51;12.00;;;11.40;;
3299;SDS011;1662;49.310;8.134;2023-06-10T09:37:21;12.30;;;11.60;;
3299;SDS011;1662;49.310;8.134;2023-06-10T09:40:03;11.70;;;11.00;;
3299;SDS011;1662;49.310;8.134;2023-06-10T09:42:33;10.47;;;10.00;;
3299;SDS011;1662;49.310;8.134;2023-06-10T09:45:00;11.27;;;10.67;;
3299;SDS011;1662;49.310;8.134;2023-06-10T09:47:27;11.77;;;11.17;;
3299;SDS011;1662;49.310;8.134;2023-06-10T09:49:53;11.80;;;11.00;;
3299;SDS011;1662;49.310;8.134;2023-06-10T09:52:25;12.47;;;11.77;;
3299;SDS011;1662;49.310;8.134;2023-06-10T09:54:53;13.27;;;12.50;;
3299;SDS011;1662;49.310;8.134;2023-06-10T09:57:24;12.70;;;11.80;;
3299;SDS011;1662;49.310;8.134;2023-06-10T09:59:53;11.83;;;11.33;;
3299;SDS011;1662;49.310;8.134;2023-06-10T10:02:19;11.47;;;10.67;;
3299;SDS011;1662;49.310;8.134;2023-06-10T10:04:45;11.83;;;11.13;;
3299;SDS011;1662;49.310;8.134;2023-06-10T10:07:11;11.40;;;10.80;;
3299;SDS011;1662;49.310;8.134;2023-06-10T10:09:39;13.63;;;12.60;;
3299;SDS011;1662;49.310;8.134;2023-06-10T10:12:08;11.70;;;11.00;;
3299;SDS011;1662;49.310;8.134;2023-06-10T10:14:35;11.87;;;11.27;;
3299;SDS011;1662;49.310;8.134;2023-06-10T10:17:02;12.30;;;11.60;;
3299;SDS011;1662;49.310;8.134;2023-06-10T10:19:32;12.77;;;12.07;;
3299;SDS011;1662;49.310;8.134;2023-06-10T10:22:08;11.60;;;11.00;;
3299;SDS011;1662;49.310;8.134;2023-06-10T10:24:42;13.63;;;12.93;;
3299;SDS011;1662;49.310;8.134;2023-06-10T10:27:17;12.43;;;11.77;;
3299;SDS011;1662;49.310;8.134;2023-06-10T10:29:48;13.20;;;12.40;;
3299;SDS011;1662;49.310;8.134;2023-06-10T10:32:17;12.33;;;11.73;;
3299;SDS011;1662;49.310;8.134;2023-06-10T10:34:49;11.30;;;10.80;;
3299;SDS011;1662;49.310;8.134;2023-06-10T10:37:22;12.17;;;11.43;;
3299;SDS011;1662;49.310;8.134;2023-06-10T10:39:48;12.70;;;12.00;;
3299;SDS011;1662;49.310;8.134;2023-06-10T10:42:15;13.20;;;12.40;;
3299;SDS011;1662;49.310;8.134;2023-06-10T10:44:42;11.83;;;11.13;;
3299;SDS011;1662;49.310;8.134;2023-06-10T10:47:08;13.87;;;13.07;;
3299;SDS011;1662;49.310;8.134;2023-06-10T10:49:35;12.80;;;12.17;;
3299;SDS011;1662;49.310;8.134;2023-06-10T10:52:02;13.13;;;12.50;;
3299;SDS011;1662;49.310;8.134;2023-06-10T10:54:33;13.27;;;12.50;;
3299;SDS011;1662;49.310;8.134;2023-06-10T10:59:51;12.40;;;11.70;;
3299;SDS011;1662;49.310;8.134;2023-06-10T11:05:03;12.80;;;12.10;;
3299;SDS011;1662;49.310;8.134;2023-06-10T11:07:30;12.97;;;12.27;;
3299;SDS011;1662;49.310;8.134;2023-06-10T11:09:57;13.33;;;12.53;;
3299;SDS011;1662;49.310;8.134;2023-06-10T11:12:24;12.07;;;11.43;;
3299;SDS011;1662;49.310;8.134;2023-06-10T11:14:53;15.60;;;14.33;;
3299;SDS011;1662;49.310;8.134;2023-06-10T11:17:20;13.90;;;13.30;;
3299;SDS011;1662;49.310;8.134;2023-06-10T11:19:49;13.27;;;12.67;;
3299;SDS011;1662;49.310;8.134;2023-06-10T11:22:18;13.50;;;12.70;;
3299;SDS011;1662;49.310;8.134;2023-06-10T11:24:47;16.07;;;14.60;;
3299;SDS011;1662;49.310;8.134;2023-06-10T11:27:15;16.10;;;14.77;;
3299;SDS011;1662;49.310;8.134;2023-06-10T11:30:18;13.83;;;13.10;;
3299;SDS011;1662;49.310;8.134;2023-06-10T11:32:43;14.23;;;13.43;;
3299;SDS011;1662;49.310;8.134;2023-06-10T11:35:09;14.30;;;13.40;;
3299;SDS011;1662;49.310;8.134;2023-06-10T11:37:35;15.20;;;14.00;;
3299;SDS011;1662;49.310;8.134;2023-06-10T11:40:01;15.00;;;14.10;;
3299;SDS011;1662;49.310;8.134;2023-06-10T11:42:31;14.53;;;13.43;;
3299;SDS011;1662;49.310;8.134;2023-06-10T11:44:57;14.43;;;13.43;;
3299;SDS011;1662;49.310;8.134;2023-06-10T11:47:23;15.07;;;14.17;;
3299;SDS011;1662;49.310;8.134;2023-06-10T11:49:58;13.63;;;12.50;;
3299;SDS011;1662;49.310;8.134;2023-06-10T11:52:29;13.87;;;13.17;;
3299;SDS011;1662;49.310;8.134;2023-06-10T11:55:02;17.40;;;16.00;;
3299;SDS011;1662;49.310;8.134;2023-06-10T11:57:29;13.77;;;13.03;;
3299;SDS011;1662;49.310;8.134;2023-06-10T12:00:05;13.60;;;12.97;;
3299;SDS011;1662;49.310;8.134;2023-06-10T12:02:31;15.20;;;14.10;;
3299;SDS011;1662;49.310;8.134;2023-06-10T12:05:09;14.40;;;13.60;;
3299;SDS011;1662;49.310;8.134;2023-06-10T12:07:36;14.73;;;13.93;;
3299;SDS011;1662;49.310;8.134;2023-06-10T12:10:01;13.77;;;13.13;;
3299;SDS011;1662;49.310;8.134;2023-06-10T12:12:27;13.50;;;12.63;;
3299;SDS011;1662;49.310;8.134;2023-06-10T12:17:20;12.63;;;12.03;;
3299;SDS011;1662;49.310;8.134;2023-06-10T12:19:49;12.63;;;11.93;;
3299;SDS011;1662;49.310;8.134;2023-06-10T12:22:16;13.47;;;12.67;;
3299;SDS011;1662;49.310;8.134;2023-06-10T12:25:00;12.87;;;11.87;;
3299;SDS011;1662;49.310;8.134;2023-06-10T12:27:31;12.17;;;11.57;;
3299;SDS011;1662;49.310;8.134;2023-06-10T12:29:59;12.37;;;11.57;;
3299;SDS011;1662;49.310;8.134;2023-06-10T12:35:06;12.93;;;11.90;;
3299;SDS011;1662;49.310;8.134;2023-06-10T12:37:32;12.47;;;11.87;;
3299;SDS011;1662;49.310;8.134;2023-06-10T12:40:00;11.83;;;11.23;;
3299;SDS011;1662;49.310;8.134;2023-06-10T12:42:31;11.90;;;11.40;;
3299;SDS011;1662;49.310;8.134;2023-06-10T12:44:59;12.37;;;11.77;;
3299;SDS011;1662;49.310;8.134;2023-06-10T12:49:59;14.30;;;12.97;;
3299;SDS011;1662;49.310;8.134;2023-06-10T12:52:28;12.53;;;11.60;;
3299;SDS011;1662;49.310;8.134;2023-06-10T12:54:57;12.30;;;11.70;;
3299;SDS011;1662;49.310;8.134;2023-06-10T12:57:23;11.67;;;11.17;;
3299;SDS011;1662;49.310;8.134;2023-06-10T12:59:51;11.27;;;10.57;;
3299;SDS011;1662;49.310;8.134;2023-06-10T13:02:18;14.07;;;13.23;;
3299;SDS011;1662;49.310;8.134;2023-06-10T13:04:49;13.23;;;12.50;;
3299;SDS011;1662;49.310;8.134;2023-06-10T13:07:15;13.70;;;12.90;;
3299;SDS011;1662;49.310;8.134;2023-06-10T13:09:41;12.80;;;12.27;;
3299;SDS011;1662;49.310;8.134;2023-06-10T13:12:07;12.93;;;12.10;;
3299;SDS011;1662;49.310;8.134;2023-06-10T13:14:33;12.60;;;11.80;;
3299;SDS011;1662;49.310;8.134;2023-06-10T13:16:58;11.70;;;11.20;;
3299;SDS011;1662;49.310;8.134;2023-06-10T13:19:24;11.90;;;11.30;;
3299;SDS011;1662;49.310;8.134;2023-06-10T13:21:52;12.13;;;11.53;;
3299;SDS011;1662;49.310;8.134;2023-06-10T13:24:17;13.43;;;12.43;;
3299;SDS011;1662;49.310;8.134;2023-06-10T13:26:43;12.57;;;11.87;;
3299;SDS011;1662;49.310;8.134;2023-06-10T13:29:09;12.77;;;12.17;;
3299;SDS011;1662;49.310;8.134;2023-06-10T13:31:39;11.43;;;10.73;;
3299;SDS011;1662;49.310;8.134;2023-06-10T13:34:07;11.80;;;11.30;;
3299;SDS011;1662;49.310;8.134;2023-06-10T13:36:33;11.80;;;11.10;;
3299;SDS011;1662;49.310;8.134;2023-06-10T13:38:59;11.40;;;10.90;;
3299;SDS011;1662;49.310;8.134;2023-06-10T13:41:25;12.13;;;11.63;;
3299;SDS011;1662;49.310;8.134;2023-06-10T13:43:53;11.90;;;11.40;;
3299;SDS011;1662;49.310;8.134;2023-06-10T13:46:19;12.30;;;11.40;;
3299;SDS011;1662;49.310;8.134;2023-06-10T13:48:46;12.13;;;11.53;;
3299;SDS011;1662;49.310;8.134;2023-06-10T13:53:59;11.70;;;11.20;;
3299;SDS011;1662;49.310;8.134;2023-06-10T13:56:25;10.90;;;10.50;;
3299;SDS011;1662;49.310;8.134;2023-06-10T13:58:51;10.57;;;10.10;;
3299;SDS011;1662;49.310;8.134;2023-06-10T14:01:17;10.50;;;10.03;;
3299;SDS011;1662;49.310;8.134;2023-06-10T14:03:43;10.67;;;10.27;;
3299;SDS011;1662;49.310;8.134;2023-06-10T14:06:09;10.90;;;10.50;;
3299;SDS011;1662;49.310;8.134;2023-06-10T14:08:34;12.03;;;11.23;;
3299;SDS011;1662;49.310;8.134;2023-06-10T14:11:00;10.87;;;10.47;;
3299;SDS011;1662;49.310;8.134;2023-06-10T14:13:26;12.20;;;11.60;;
3299;SDS011;1662;49.310;8.134;2023-06-10T14:15:51;11.90;;;11.40;;
3299;SDS011;1662;49.310;8.134;2023-06-10T14:18:17;12.30;;;11.50;;
3299;SDS011;1662;49.310;8.134;2023-06-10T14:20:43;11.80;;;11.30;;
3299;SDS011;1662;49.310;8.134;2023-06-10T14:23:08;11.50;;;11.00;;
3299;SDS011;1662;49.310;8.134;2023-06-10T14:25:36;11.83;;;11.33;;
3299;SDS011;1662;49.310;8.134;2023-06-10T14:28:02;11.67;;;11.17;;
3299;SDS011;1662;49.310;8.134;2023-06-10T14:30:27;11.50;;;10.80;;
3299;SDS011;1662;49.310;8.134;2023-06-10T14:32:53;11.20;;;10.70;;
3299;SDS011;1662;49.310;8.134;2023-06-10T14:35:19;11.30;;;10.90;;
3299;SDS011;1662;49.310;8.134;2023-06-10T14:37:45;10.80;;;10.40;;
3299;SDS011;1662;49.310;8.134;2023-06-10T14:40:11;11.20;;;10.80;;
3299;SDS011;1662;49.310;8.134;2023-06-10T14:42:37;11.77;;;11.30;;
3299;SDS011;1662;49.310;8.134;2023-06-10T14:45:02;11.30;;;10.70;;
3299;SDS011;1662;49.310;8.134;2023-06-10T14:47:29;12.07;;;11.57;;
3299;SDS011;1662;49.310;8.134;2023-06-10T14:49:54;11.50;;;11.03;;
3299;SDS011;1662;49.310;8.134;2023-06-10T14:52:20;12.23;;;11.63;;
3299;SDS011;1662;49.310;8.134;2023-06-10T14:54:46;11.47;;;10.97;;
3299;SDS011;1662;49.310;8.134;2023-06-10T14:57:11;11.57;;;11.07;;
3299;SDS011;1662;49.310;8.134;2023-06-10T14:59:37;12.67;;;11.93;;
3299;SDS011;1662;49.310;8.134;2023-06-10T15:02:02;12.03;;;11.43;;
3299;SDS011;1662;49.310;8.134;2023-06-10T15:04:28;12.37;;;11.67;;
3299;SDS011;1662;49.310;8.134;2023-06-10T15:06:54;12.80;;;11.80;;
3299;SDS011;1662;49.310;8.134;2023-06-10T15:09:19;12.60;;;12.00;;
3299;SDS011;1662;49.310;8.134;2023-06-10T15:11:45;12.63;;;12.00;;
3299;SDS011;1662;49.310;8.134;2023-06-10T15:14:11;13.47;;;12.77;;